createdAt,value
2023-04-28T00:01:28.993Z,100423.66
2023-04-28T00:03:57.041Z,100400.22
2023-04-28T00:06:23.944Z,100387.53
2023-04-28T00:08:50.648Z,100389.22
2023-04-28T00:11:17.338Z,100408.63
2023-04-28T00:13:44.158Z,100393.41
2023-04-28T00:16:11.030Z,100388.34
2023-04-28T00:18:37.736Z,100346.03
2023-04-28T00:21:04.697Z,100397.31
2023-04-28T00:23:31.334Z,100406.78
2023-04-28T00:25:58.146Z,100372.53
2023-04-28T00:30:54.366Z,100381.53
2023-04-28T00:33:21.108Z,100347.09
2023-04-28T00:35:47.755Z,100352.03
2023-04-28T00:38:14.422Z,100379.88
2023-04-28T00:40:41.190Z,100348.84
2023-04-28T00:43:07.843Z,100354.19
2023-04-28T00:45:34.918Z,100366.78
2023-04-28T00:48:02.651Z,100394.38
2023-04-28T00:50:29.376Z,100324.66
2023-04-28T00:52:56.253Z,100358.59
2023-04-28T00:55:24.964Z,100373.91
2023-04-28T00:57:51.787Z,100392.06
2023-04-28T01:00:18.516Z,100353.13
2023-04-28T01:02:45.278Z,100375.97
2023-04-28T01:05:13.682Z,100333.03
2023-04-28T01:07:40.352Z,100308.31
2023-04-28T01:10:07.825Z,100327.06
2023-04-28T01:12:34.474Z,100322.56
2023-04-28T01:15:01.655Z,100349.53
2023-04-28T01:17:28.362Z,100336.63
2023-04-28T01:19:55.896Z,100389.38
2023-04-28T01:22:22.628Z,100340.06
2023-04-28T01:24:49.330Z,100348.56
2023-04-28T01:27:16.678Z,100357.09
2023-04-28T01:29:43.408Z,100362.47
2023-04-28T01:32:10.119Z,100351.94
2023-04-28T01:34:36.933Z,100346.13
2023-04-28T01:37:03.615Z,100344.41
2023-04-28T01:39:30.429Z,100346.47
2023-04-28T01:41:57.110Z,100257.63
2023-04-28T01:44:23.748Z,100353.75
2023-04-28T01:46:50.518Z,100366.47
2023-04-28T01:49:17.193Z,100318.66
2023-04-28T01:51:43.839Z,100356.13
2023-04-28T01:54:11.259Z,100349.00
2023-04-28T01:56:37.944Z,100309.78
2023-04-28T01:59:04.581Z,100345.91
2023-04-28T02:01:31.385Z,100331.25
2023-04-28T02:03:58.253Z,100326.47
2023-04-28T02:06:25.042Z,100311.34
2023-04-28T02:08:51.917Z,100348.63
2023-04-28T02:11:18.550Z,100312.75
2023-04-28T02:13:45.247Z,100363.09
2023-04-28T02:16:12.031Z,100308.50
2023-04-28T02:18:38.722Z,100326.19
2023-04-28T02:21:12.431Z,100356.13
2023-04-28T02:23:40.245Z,100368.00
2023-04-28T02:26:06.929Z,100336.56
2023-04-28T02:28:33.598Z,100319.91
2023-04-28T02:31:08.081Z,100336.13
2023-04-28T02:33:35.545Z,100345.44
2023-04-28T02:36:03.386Z,100311.56
2023-04-28T02:38:30.464Z,100320.97
2023-04-28T02:41:01.303Z,100321.66
2023-04-28T02:43:28.998Z,100319.81
2023-04-28T02:45:55.913Z,100288.94
2023-04-28T02:48:23.011Z,100340.69
2023-04-28T02:50:49.905Z,100362.25
2023-04-28T02:53:16.821Z,100321.56
2023-04-28T02:55:43.471Z,100319.19
2023-04-28T02:58:10.249Z,100318.84
2023-04-28T03:00:36.969Z,100348.44
2023-04-28T03:03:04.021Z,100347.47
2023-04-28T03:05:31.000Z,100333.03
2023-04-28T03:07:57.755Z,100320.28
2023-04-28T03:10:24.544Z,100356.81
2023-04-28T03:12:51.564Z,100346.28
2023-04-28T03:15:18.353Z,100313.94
2023-04-28T03:17:45.191Z,100363.13
2023-04-28T03:20:13.057Z,100317.88
2023-04-28T03:22:40.042Z,100354.31
2023-04-28T03:25:06.917Z,100332.78
2023-04-28T03:27:33.648Z,100299.19
2023-04-28T03:30:00.392Z,100305.69
2023-04-28T03:32:27.024Z,100340.09
2023-04-28T03:34:53.737Z,100336.53
2023-04-28T03:37:20.460Z,100321.25
2023-04-28T03:39:47.117Z,100327.16
2023-04-28T03:42:13.833Z,100322.00
2023-04-28T03:44:40.561Z,100287.78
2023-04-28T03:47:07.354Z,100322.19
2023-04-28T03:49:34.017Z,100290.66
2023-04-28T03:52:00.703Z,100290.72
2023-04-28T03:54:27.353Z,100321.94
2023-04-28T03:56:54.005Z,100340.75
2023-04-28T03:59:21.169Z,100283.50
2023-04-28T04:01:47.845Z,100342.47
2023-04-28T04:04:14.886Z,100300.72
2023-04-28T04:06:41.850Z,100312.94
2023-04-28T04:09:08.901Z,100275.97
2023-04-28T04:11:35.573Z,100290.00
2023-04-28T04:14:02.495Z,100291.53
2023-04-28T04:16:29.489Z,100285.66
2023-04-28T04:18:56.422Z,100304.16
2023-04-28T04:21:23.166Z,100308.38
2023-04-28T04:23:49.871Z,100288.03
2023-04-28T04:26:16.576Z,100290.38
2023-04-28T04:28:43.272Z,100316.13
2023-04-28T04:31:09.938Z,100327.31
2023-04-28T04:33:37.733Z,100316.81
2023-04-28T04:36:05.156Z,100275.66
2023-04-28T04:38:31.910Z,100333.38
2023-04-28T04:40:58.563Z,100294.06
2023-04-28T04:43:25.446Z,100279.66
2023-04-28T04:45:52.156Z,100309.69
2023-04-28T04:48:18.911Z,100272.72
2023-04-28T04:50:45.705Z,100320.38
2023-04-28T04:53:16.052Z,100272.84
2023-04-28T04:55:43.349Z,100296.84
2023-04-28T04:58:10.222Z,100305.13
2023-04-28T05:00:40.027Z,100275.22
2023-04-28T05:03:10.096Z,100311.81
2023-04-28T05:05:36.844Z,100308.25
2023-04-28T05:08:03.800Z,100321.38
2023-04-28T05:10:30.485Z,100310.13
2023-04-28T05:12:57.251Z,100289.75
2023-04-28T05:15:23.948Z,100317.16
2023-04-28T05:17:50.774Z,100296.84
2023-04-28T05:20:17.496Z,100341.75
2023-04-28T05:22:44.152Z,100281.44
2023-04-28T05:25:10.795Z,100310.19
2023-04-28T05:27:39.551Z,100292.41
2023-04-28T05:30:08.245Z,100322.94
2023-04-28T05:32:36.137Z,100345.09
2023-04-28T05:35:03.562Z,100341.50
2023-04-28T05:37:30.178Z,100284.69
2023-04-28T05:39:56.848Z,100319.88
2023-04-28T05:42:23.526Z,100325.88
2023-04-28T05:44:50.155Z,100329.53
2023-04-28T05:47:16.879Z,100314.78
2023-04-28T05:49:43.527Z,100313.03
2023-04-28T05:52:10.214Z,100352.41
2023-04-28T05:54:36.868Z,100313.97
2023-04-28T05:57:03.726Z,100258.72
2023-04-28T05:59:31.592Z,100299.97
2023-04-28T06:01:58.385Z,100357.22
2023-04-28T06:04:26.619Z,100332.41
2023-04-28T06:06:53.605Z,100334.09
2023-04-28T06:09:20.418Z,100313.50
2023-04-28T06:11:47.314Z,100326.41
2023-04-28T06:14:14.222Z,100308.69
2023-04-28T06:16:41.121Z,100313.50
2023-04-28T06:19:07.879Z,100335.34
2023-04-28T06:21:34.547Z,100334.34
2023-04-28T06:24:02.098Z,100296.16
2023-04-28T06:26:29.445Z,100358.72
2023-04-28T06:28:56.517Z,100319.16
2023-04-28T06:31:23.278Z,100316.97
2023-04-28T06:33:50.184Z,100351.06
2023-04-28T06:36:17.967Z,100321.81
2023-04-28T06:38:45.342Z,100363.81
2023-04-28T06:41:12.259Z,100340.47
2023-04-28T06:43:38.940Z,100350.94
2023-04-28T06:46:05.825Z,100323.56
2023-04-28T06:48:32.606Z,100352.09
2023-04-28T06:50:59.284Z,100305.81
2023-04-28T06:53:25.921Z,100319.50
2023-04-28T06:55:52.936Z,100368.56
2023-04-28T06:58:21.066Z,100368.69
2023-04-28T07:00:48.035Z,100365.22
2023-04-28T07:03:14.819Z,100359.00
2023-04-28T07:05:41.611Z,100372.16
2023-04-28T07:08:08.264Z,100359.19
2023-04-28T07:10:34.962Z,100354.22
2023-04-28T07:13:02.960Z,100362.34
2023-04-28T07:15:29.889Z,100367.84
2023-04-28T07:17:56.635Z,100351.34
2023-04-28T07:20:23.364Z,100375.25
2023-04-28T07:22:50.059Z,100384.56
2023-04-28T07:25:16.764Z,100327.84
2023-04-28T07:27:43.437Z,100369.03
2023-04-28T07:30:25.812Z,100366.81
2023-04-28T07:32:53.919Z,100333.19
2023-04-28T07:35:20.606Z,100352.94
2023-04-28T07:37:47.408Z,100361.19
2023-04-28T07:40:14.273Z,100384.50
2023-04-28T07:42:41.226Z,100337.03
2023-04-28T07:45:08.585Z,100407.97
2023-04-28T07:47:35.666Z,100348.38
2023-04-28T07:50:05.267Z,100356.28
2023-04-28T07:52:33.184Z,100389.38
2023-04-28T07:55:00.215Z,100359.13
2023-04-28T07:57:27.153Z,100380.16
2023-04-28T07:59:53.891Z,100391.59
2023-04-28T08:02:21.030Z,100376.47
2023-04-28T08:04:47.953Z,100373.28
2023-04-28T08:07:14.936Z,100401.72
2023-04-28T08:09:44.208Z,100353.41
2023-04-28T08:12:10.931Z,100412.16
2023-04-28T08:14:37.590Z,100387.16
2023-04-28T08:17:04.343Z,100369.28
2023-04-28T08:19:31.264Z,100406.59
2023-04-28T08:21:58.055Z,100377.88
2023-04-28T08:24:24.749Z,100400.25
2023-04-28T08:26:52.145Z,100391.53
2023-04-28T08:29:18.821Z,100406.53
2023-04-28T08:31:45.813Z,100393.34
2023-04-28T08:34:14.015Z,100430.31
2023-04-28T08:36:42.622Z,100360.03
2023-04-28T08:39:11.108Z,100373.84
2023-04-28T08:41:42.233Z,100388.09
2023-04-28T08:44:10.062Z,100391.56
2023-04-28T08:46:42.353Z,100345.50
2023-04-28T08:49:17.082Z,100362.09
2023-04-28T08:51:55.615Z,100414.72
2023-04-28T08:54:26.964Z,100393.66
2023-04-28T08:56:55.719Z,100388.28
2023-04-28T08:59:22.814Z,100347.16
2023-04-28T09:01:50.611Z,100426.13
2023-04-28T09:04:18.608Z,100434.78
2023-04-28T09:06:46.634Z,100421.88
2023-04-28T09:09:25.378Z,100414.72
2023-04-28T09:11:52.365Z,100432.19
2023-04-28T09:14:19.210Z,100388.94
2023-04-28T09:16:46.332Z,100416.06
2023-04-28T09:19:13.209Z,100380.84
2023-04-28T09:21:53.860Z,100438.59
2023-04-28T09:24:31.900Z,100433.84
2023-04-28T09:27:04.468Z,100430.47
2023-04-28T09:29:32.112Z,100438.38
2023-04-28T09:32:22.262Z,100405.72
2023-04-28T09:34:51.529Z,100440.53
2023-04-28T09:37:23.488Z,100447.34
2023-04-28T09:39:51.859Z,100405.31
2023-04-28T09:42:42.675Z,100446.66
2023-04-28T09:45:11.349Z,100436.25
2023-04-28T09:47:42.005Z,100423.13
2023-04-28T09:50:12.830Z,100433.06
2023-04-28T09:52:41.512Z,100417.88
2023-04-28T09:55:08.989Z,100418.22
2023-04-28T09:57:36.597Z,100461.63
2023-04-28T10:00:09.560Z,100400.78
2023-04-28T10:05:10.041Z,100475.38
2023-04-28T10:07:37.718Z,100429.53
2023-04-28T10:10:05.605Z,100427.06
2023-04-28T10:12:33.173Z,100437.63
2023-04-28T10:15:00.528Z,100428.13
2023-04-28T10:17:29.794Z,100412.44
2023-04-28T10:19:57.285Z,100467.59
2023-04-28T10:22:42.441Z,100471.84
2023-04-28T10:25:12.185Z,100473.22
2023-04-28T10:27:41.205Z,100452.38
2023-04-28T10:30:27.547Z,100471.84
2023-04-28T10:33:14.326Z,100485.22
2023-04-28T10:35:47.978Z,100450.63
2023-04-28T10:38:14.944Z,100485.88
2023-04-28T10:40:42.678Z,100485.69
2023-04-28T10:43:11.256Z,100485.00
2023-04-28T10:45:56.274Z,100494.13
2023-04-28T10:48:46.564Z,100465.16
2023-04-28T10:51:16.580Z,100490.88
2023-04-28T10:53:47.169Z,100492.69
2023-04-28T10:56:25.608Z,100440.31
2023-04-28T10:58:56.210Z,100479.56
2023-04-28T11:01:24.910Z,100490.94
2023-04-28T11:04:00.943Z,100486.84
2023-04-28T11:06:40.345Z,100448.81
2023-04-28T11:09:14.120Z,100501.88
2023-04-28T11:12:05.706Z,100497.00
2023-04-28T11:14:36.488Z,100480.72
2023-04-28T11:17:05.110Z,100490.63
2023-04-28T11:19:34.593Z,100493.41
2023-04-28T11:22:03.123Z,100484.91
2023-04-28T11:24:31.091Z,100503.59
2023-04-28T11:26:59.218Z,100479.59
2023-04-28T11:29:40.182Z,100496.97
2023-04-28T11:32:10.441Z,100477.81
2023-04-28T11:34:37.903Z,100485.53
2023-04-28T11:37:07.269Z,100514.84
2023-04-28T11:39:34.699Z,100461.84
2023-04-28T11:42:09.202Z,100501.00
2023-04-28T11:44:35.933Z,100455.81
2023-04-28T11:47:04.310Z,100496.97
2023-04-28T11:49:41.639Z,100485.53
2023-04-28T11:52:09.347Z,100489.72
2023-04-28T11:54:37.591Z,100524.78
2023-04-28T11:57:05.868Z,100529.00
2023-04-28T11:59:34.575Z,100462.78
2023-04-28T12:02:03.939Z,100501.88
2023-04-28T12:04:41.873Z,100543.97
2023-04-28T12:07:16.363Z,100534.53
2023-04-28T12:09:46.947Z,100540.97
2023-04-28T12:12:45.189Z,100522.66
2023-04-28T12:15:18.034Z,100529.09
2023-04-28T12:17:46.326Z,100514.03
2023-04-28T12:20:37.559Z,100538.38
2023-04-28T12:23:05.610Z,100545.63
2023-04-28T12:25:34.082Z,100519.28
2023-04-28T12:28:07.999Z,100546.03
2023-04-28T12:30:42.144Z,100528.16
2023-04-28T12:33:26.102Z,100524.94
2023-04-28T12:35:55.201Z,100529.66
2023-04-28T12:38:22.769Z,100514.41
2023-04-28T12:40:49.504Z,100509.47
2023-04-28T12:43:16.160Z,100555.13
2023-04-28T12:45:43.450Z,100535.69
2023-04-28T12:48:10.374Z,100544.63
2023-04-28T12:50:37.066Z,100533.41
2023-04-28T12:53:03.768Z,100543.00
2023-04-28T12:55:30.594Z,100540.00
2023-04-28T12:57:57.625Z,100527.69
2023-04-28T13:00:25.198Z,100551.28
2023-04-28T13:02:53.223Z,100571.84
2023-04-28T13:05:20.132Z,100532.03
2023-04-28T13:07:47.797Z,100559.94
2023-04-28T13:10:14.548Z,100577.25
2023-04-28T13:12:41.660Z,100526.16
2023-04-28T13:15:09.226Z,100571.44
2023-04-28T13:17:36.171Z,100528.94
2023-04-28T13:20:05.643Z,100562.94
2023-04-28T13:22:32.425Z,100591.31
2023-04-28T13:24:59.160Z,100554.28
2023-04-28T13:27:26.030Z,100583.97
2023-04-28T13:29:52.847Z,100580.03
2023-04-28T13:32:19.560Z,100590.44
2023-04-28T13:34:46.838Z,100542.06
2023-04-28T13:37:13.866Z,100575.16
2023-04-28T13:39:40.634Z,100578.88
2023-04-28T13:42:07.344Z,100552.06
2023-04-28T13:44:34.050Z,100548.56
2023-04-28T13:47:00.961Z,100519.38
2023-04-28T13:49:28.151Z,100598.03
2023-04-28T13:51:54.809Z,100609.09
2023-04-28T13:54:21.948Z,100565.59
2023-04-28T13:56:48.712Z,100610.88
2023-04-28T13:59:15.416Z,100561.94
2023-04-28T14:01:42.314Z,100580.44
2023-04-28T14:04:09.357Z,100586.91
2023-04-28T14:06:37.684Z,100587.50
2023-04-28T14:09:04.537Z,100569.56
2023-04-28T14:11:31.187Z,100583.38
2023-04-28T14:13:57.865Z,100579.78
2023-04-28T14:16:24.732Z,100582.28
2023-04-28T14:18:51.912Z,100611.41
2023-04-28T14:21:18.671Z,100592.19
2023-04-28T14:23:45.371Z,100606.28
2023-04-28T14:26:12.180Z,100643.75
2023-04-28T14:28:38.889Z,100573.22
2023-04-28T14:31:09.322Z,100601.41
2023-04-28T14:33:36.886Z,100621.69
2023-04-28T14:36:04.128Z,100649.56
2023-04-28T14:38:31.298Z,100612.00
2023-04-28T14:40:58.289Z,100607.38
2023-04-28T14:43:25.102Z,100624.84
2023-04-28T14:45:52.261Z,100617.16
2023-04-28T14:48:19.705Z,100613.63
2023-04-28T14:50:46.897Z,100609.28
2023-04-28T14:53:13.618Z,100650.13
2023-04-28T14:55:40.527Z,100623.84
2023-04-28T14:58:07.571Z,100617.09
2023-04-28T15:00:36.094Z,100663.81
2023-04-28T15:03:03.123Z,100665.47
2023-04-28T15:05:29.898Z,100623.34
2023-04-28T15:07:56.902Z,100635.34
2023-04-28T15:10:23.651Z,100678.53
2023-04-28T15:12:50.649Z,100630.75
2023-04-28T15:15:17.375Z,100633.19
2023-04-28T15:17:45.144Z,100694.16
2023-04-28T15:20:11.970Z,100671.47
2023-04-28T15:22:38.754Z,100652.31
2023-04-28T15:25:06.033Z,100650.22
2023-04-28T15:27:32.780Z,100642.44
2023-04-28T15:29:59.533Z,100717.31
2023-04-28T15:32:27.281Z,100683.81
2023-04-28T15:34:55.123Z,100674.75
2023-04-28T15:37:52.117Z,100699.41
2023-04-28T15:40:20.106Z,100688.91
2023-04-28T15:42:51.839Z,100644.94
2023-04-28T15:45:22.603Z,100693.97
2023-04-28T15:47:50.926Z,100717.97
2023-04-28T15:50:19.832Z,100696.19
2023-04-28T15:52:47.672Z,100710.13
2023-04-28T15:55:15.781Z,100681.28
2023-04-28T15:57:43.279Z,100700.63
2023-04-28T16:00:11.400Z,100694.28
2023-04-28T16:02:39.409Z,100703.84
2023-04-28T16:05:06.876Z,100694.88
2023-04-28T16:07:42.348Z,100703.19
2023-04-28T16:10:09.957Z,100689.94
2023-04-28T16:12:37.099Z,100720.84
2023-04-28T16:15:04.226Z,100706.78
2023-04-28T16:17:31.130Z,100758.66
2023-04-28T16:19:57.934Z,100707.25
2023-04-28T16:22:25.428Z,100707.22
2023-04-28T16:24:53.876Z,100745.38
2023-04-28T16:27:20.942Z,100769.06
2023-04-28T16:29:47.664Z,100781.44
2023-04-28T16:32:14.512Z,100747.69
2023-04-28T16:34:41.531Z,100734.03
2023-04-28T16:37:08.413Z,100717.56
2023-04-28T16:39:35.070Z,100786.69
2023-04-28T16:42:01.993Z,100798.13
2023-04-28T16:44:28.897Z,100777.81
2023-04-28T16:47:00.755Z,100804.50
2023-04-28T16:49:27.675Z,100794.06
2023-04-28T16:52:02.168Z,100779.47
2023-04-28T16:54:30.142Z,100790.47
2023-04-28T16:57:02.570Z,100819.63
2023-04-28T16:59:33.977Z,100806.53
2023-04-28T17:02:04.930Z,100827.09
2023-04-28T17:04:32.051Z,100838.31
2023-04-28T17:06:59.287Z,100842.13
2023-04-28T17:09:26.393Z,100785.66
2023-04-28T17:11:53.258Z,100815.19
2023-04-28T17:14:20.140Z,100829.69
2023-04-28T17:16:47.273Z,100822.69
2023-04-28T17:19:14.538Z,100808.66
2023-04-28T17:21:41.458Z,100848.75
2023-04-28T17:24:09.026Z,100816.94
2023-04-28T17:26:36.486Z,100792.75
2023-04-28T17:29:04.120Z,100859.91
2023-04-28T17:31:31.431Z,100856.84
2023-04-28T17:33:59.889Z,100862.28
2023-04-28T17:36:27.396Z,100834.59
2023-04-28T17:38:55.036Z,100868.06
2023-04-28T17:41:22.932Z,100852.66
2023-04-28T17:43:51.848Z,100856.84
2023-04-28T17:46:19.142Z,100874.44
2023-04-28T17:48:45.964Z,100851.75
2023-04-28T17:51:12.775Z,100802.50
2023-04-28T17:53:39.725Z,100837.03
2023-04-28T17:56:06.853Z,100851.19
2023-04-28T17:58:33.795Z,100890.56
2023-04-28T18:01:04.971Z,100846.03
2023-04-28T18:03:34.012Z,100912.47
2023-04-28T18:06:01.460Z,100890.38
2023-04-28T18:08:28.325Z,100904.25
2023-04-28T18:10:55.858Z,100862.31
2023-04-28T18:13:22.578Z,100908.81
2023-04-28T18:15:49.471Z,100896.00
2023-04-28T18:18:17.037Z,100853.44
2023-04-28T18:20:43.995Z,100932.16
2023-04-28T18:23:10.828Z,100889.88
2023-04-28T18:25:37.794Z,100893.56
2023-04-28T18:28:05.479Z,100877.19
2023-04-28T18:30:38.091Z,100864.44
2023-04-28T18:33:08.759Z,100923.09
2023-04-28T18:35:37.039Z,100951.25
2023-04-28T18:38:05.187Z,100901.53
2023-04-28T18:40:33.333Z,100945.91
2023-04-28T18:43:01.017Z,100936.44
2023-04-28T18:45:32.381Z,100917.22
2023-04-28T18:47:59.248Z,100904.19
2023-04-28T18:50:26.088Z,100929.28
2023-04-28T18:52:52.766Z,100914.28
2023-04-28T18:55:19.670Z,100926.97
2023-04-28T18:57:48.200Z,100956.81
2023-04-28T19:00:16.439Z,100957.41
2023-04-28T19:02:44.680Z,100912.75
2023-04-28T19:05:12.755Z,100909.75
2023-04-28T19:07:39.540Z,100982.00
2023-04-28T19:10:07.109Z,100947.78
2023-04-28T19:12:33.785Z,100906.50
2023-04-28T19:15:01.132Z,100910.91
2023-04-28T19:17:28.593Z,100965.44
2023-04-28T19:19:56.675Z,100984.69
2023-04-28T19:22:35.687Z,100966.63
2023-04-28T19:25:04.165Z,100948.53
2023-04-28T19:27:39.202Z,101002.44
2023-04-28T19:30:09.006Z,100970.81
2023-04-28T19:32:35.978Z,100985.97
2023-04-28T19:35:04.561Z,101019.56
2023-04-28T19:37:31.971Z,101014.38
2023-04-28T19:39:58.841Z,101001.44
2023-04-28T19:42:26.081Z,100949.22
2023-04-28T19:44:58.103Z,101027.38
2023-04-28T19:47:30.065Z,101004.19
2023-04-28T19:50:00.707Z,101035.66
2023-04-28T19:52:28.030Z,100951.59
2023-04-28T19:54:54.983Z,100985.53
2023-04-28T19:57:22.503Z,101017.41
2023-04-28T19:59:49.841Z,101038.38
2023-04-28T20:02:17.512Z,101035.69
2023-04-28T20:04:45.265Z,101026.47
2023-04-28T20:07:12.155Z,101063.19
2023-04-28T20:09:39.281Z,100990.16
2023-04-28T20:12:08.834Z,101065.16
2023-04-28T20:14:37.179Z,101047.28
2023-04-28T20:17:05.615Z,101074.34
2023-04-28T20:19:32.385Z,101055.78
2023-04-28T20:21:59.038Z,101062.53
2023-04-28T20:24:25.925Z,101037.72
2023-04-28T20:26:54.643Z,101020.59
2023-04-28T20:29:21.546Z,101067.13
2023-04-28T20:31:48.549Z,101038.84
2023-04-28T20:34:15.445Z,101033.94
2023-04-28T20:36:43.071Z,101045.84
2023-04-28T20:39:11.906Z,101104.06
2023-04-28T20:41:41.024Z,101057.47
2023-04-28T20:44:08.242Z,101090.63
2023-04-28T20:46:35.588Z,101094.69
2023-04-28T20:49:03.001Z,101034.81
2023-04-28T20:51:30.222Z,101109.75
2023-04-28T20:53:57.737Z,101080.28
2023-04-28T20:56:24.560Z,101039.00
2023-04-28T20:58:51.576Z,101078.66
2023-04-28T21:01:18.465Z,101086.69
2023-04-28T21:03:45.570Z,101065.16
2023-04-28T21:06:12.630Z,101057.13
2023-04-28T21:08:40.906Z,101057.72
2023-04-28T21:11:17.924Z,101059.91
2023-04-28T21:13:45.888Z,101086.06
2023-04-28T21:16:20.568Z,101125.50
2023-04-28T21:18:48.304Z,101084.25
2023-04-28T21:21:15.445Z,101118.47
2023-04-28T21:23:43.234Z,101047.16
2023-04-28T21:26:10.609Z,101060.44
2023-04-28T21:28:37.635Z,101086.84
2023-04-28T21:31:05.099Z,101133.34
2023-04-28T21:33:32.328Z,101096.72
2023-04-28T21:36:03.697Z,101102.75
2023-04-28T21:38:30.413Z,101054.88
2023-04-28T21:40:57.099Z,101096.06
2023-04-28T21:43:24.213Z,101089.91
2023-04-28T21:45:52.232Z,101075.31
2023-04-28T21:48:19.050Z,101151.88
2023-04-28T21:50:45.796Z,101090.28
2023-04-28T21:53:12.488Z,101082.44
2023-04-28T21:55:44.437Z,101136.66
2023-04-28T21:58:11.703Z,101069.94
2023-04-28T22:00:49.046Z,101141.31
2023-04-28T22:03:16.404Z,101107.38
2023-04-28T22:05:44.847Z,101108.47
2023-04-28T22:08:12.822Z,101105.91
2023-04-28T22:10:39.678Z,101119.44
2023-04-28T22:13:07.005Z,101088.69
2023-04-28T22:15:34.739Z,101162.44
2023-04-28T22:18:05.642Z,101090.50
2023-04-28T22:20:32.624Z,101148.38
2023-04-28T22:22:59.438Z,101103.63
2023-04-28T22:25:26.373Z,101121.16
2023-04-28T22:27:53.025Z,101118.44
2023-04-28T22:30:19.933Z,101141.25
2023-04-28T22:32:47.376Z,101095.97
2023-04-28T22:35:16.882Z,101181.69
2023-04-28T22:37:43.810Z,101144.22
2023-04-28T22:40:11.326Z,101147.53
2023-04-28T22:42:39.746Z,101162.78
2023-04-28T22:45:07.030Z,101188.63
2023-04-28T22:47:34.739Z,101148.41
2023-04-28T22:50:04.369Z,101194.06
2023-04-28T22:52:31.772Z,101150.19
2023-04-28T22:54:58.750Z,101165.06
2023-04-28T22:57:25.660Z,101150.66
2023-04-28T22:59:52.599Z,101189.88
2023-04-28T23:02:19.812Z,101177.31
2023-04-28T23:04:46.732Z,101200.72
2023-04-28T23:07:13.477Z,101146.66
2023-04-28T23:09:40.244Z,101184.44
2023-04-28T23:12:07.292Z,101143.84
2023-04-28T23:14:34.238Z,101207.47
2023-04-28T23:17:00.944Z,101190.50
2023-04-28T23:19:27.678Z,101170.59
2023-04-28T23:21:54.589Z,101160.31
2023-04-28T23:24:21.392Z,101213.94
2023-04-28T23:26:48.454Z,101187.84
2023-04-28T23:29:15.176Z,101206.94
2023-04-28T23:31:41.900Z,101206.31
2023-04-28T23:34:09.239Z,101223.53
2023-04-28T23:36:36.852Z,101168.47
2023-04-28T23:39:03.607Z,101226.31
2023-04-28T23:41:30.561Z,101207.25
2023-04-28T23:43:57.493Z,101207.91
2023-04-28T23:46:24.196Z,101185.94
2023-04-28T23:48:50.951Z,101203.25
2023-04-28T23:51:17.646Z,101219.50
2023-04-28T23:53:44.344Z,101232.34
2023-04-28T23:56:11.215Z,101186.84
2023-04-28T23:58:38.758Z,101224.09
